Time;durP1;ratioP1;P1;durP2;ratioP2;P2;SDS_P1;SDS_P2;PMS_P1;PMS_P2;Temp;Humidity;BMP_temperature;BMP_pressure;BME280_temperature;BME280_humidity;BME280_pressure;Samples;Min_cycle;Max_cycle;Signal;HPM_P1;HPM_P2
2022/09/30 00:01:50;;;;;;;1999.90;999.90;;;10.60;99.90;;;;;;4974842;28;20126;-77
2022/09/30 00:04:18;;;;;;;1999.90;999.90;;;10.60;99.90;;;;;;4974667;28;20027;-77
2022/09/30 00:06:45;;;;;;;1999.90;999.90;;;10.60;99.90;;;;;;4974506;28;20059;-77
2022/09/30 00:09:11;;;;;;;1999.90;999.90;;;10.60;99.90;;;;;;4974560;28;20050;-77
2022/09/30 00:11:38;;;;;;;1999.90;999.90;;;10.60;99.90;;;;;;4974301;28;20026;-77
2022/09/30 00:14:04;;;;;;;1999.90;999.90;;;10.50;99.90;;;;;;4973266;28;20502;-77
2022/09/30 00:16:33;;;;;;;1999.90;999.90;;;10.50;99.90;;;;;;4974418;28;20509;-77
2022/09/30 00:18:59;;;;;;;1999.90;999.90;;;10.50;99.90;;;;;;4992076;28;20035;-77
2022/09/30 00:21:27;;;;;;;1999.90;999.90;;;10.40;99.90;;;;;;4993721;28;20039;-77
2022/09/30 00:23:53;;;;;;;1999.90;999.90;;;10.40;99.90;;;;;;4992434;28;20023;-77
2022/09/30 00:26:21;;;;;;;1999.90;999.90;;;10.40;99.90;;;;;;4993361;28;20497;-77
2022/09/30 00:28:56;;;;;;;1999.90;999.90;;;10.30;99.90;;;;;;4993467;28;20097;-77
2022/09/30 00:31:24;;;;;;;1999.90;999.90;;;10.30;99.90;;;;;;4994139;28;20501;-77
2022/09/30 00:34:10;;;;;;;1999.90;999.90;;;10.20;99.90;;;;;;4993571;28;20034;-77
2022/09/30 00:36:48;;;;;;;1999.90;999.90;;;10.20;99.90;;;;;;4993240;28;20026;-77
2022/09/30 00:39:15;;;;;;;1999.90;999.90;;;10.10;99.90;;;;;;4992788;28;20093;-77
2022/09/30 00:41:42;;;;;;;1999.90;999.90;;;10.10;99.90;;;;;;4993683;28;20497;-77
2022/09/30 00:44:45;;;;;;;1999.90;999.90;;;10.10;99.90;;;;;;4993317;28;20030;-77
2022/09/30 00:47:45;;;;;;;1999.90;999.90;;;10.10;99.90;;;;;;4993496;28;20113;-77
2022/09/30 00:50:16;;;;;;;1999.90;999.90;;;10.00;99.90;;;;;;4993347;28;20285;-77
2022/09/30 00:52:55;;;;;;;1999.90;999.90;;;9.90;99.90;;;;;;4993219;28;20026;-77
2022/09/30 00:55:33;;;;;;;1999.90;999.90;;;9.90;99.90;;;;;;4993506;28;20026;-77
2022/09/30 00:58:02;;;;;;;1999.90;999.90;;;9.90;99.90;;;;;;4991858;28;20551;-77
2022/09/30 01:00:28;;;;;;;1999.90;999.90;;;9.90;99.90;;;;;;4983234;28;20030;-77
2022/09/30 01:02:54;;;;;;;1999.90;999.90;;;9.90;99.90;;;;;;4973514;28;20471;-77
2022/09/30 01:05:21;;;;;;;1999.90;999.90;;;9.80;99.90;;;;;;4974222;28;20031;-77
2022/09/30 01:07:48;;;;;;;1999.90;999.90;;;9.80;99.90;;;;;;4973677;28;20039;-77
2022/09/30 01:10:13;;;;;;;1999.90;999.90;;;9.80;99.90;;;;;;4973644;28;20027;-77
2022/09/30 01:12:39;;;;;;;1999.90;999.90;;;9.70;99.90;;;;;;4973385;28;20031;-77
2022/09/30 01:15:05;;;;;;;1999.90;999.90;;;9.70;99.90;;;;;;4973655;28;20034;-77
2022/09/30 01:17:43;;;;;;;1999.90;999.90;;;9.70;99.90;;;;;;4982302;28;20038;-77
2022/09/30 01:20:33;;;;;;;1999.90;999.90;;;9.70;99.90;;;;;;4992545;28;20022;-77
2022/09/30 01:23:01;;;;;;;1999.90;999.90;;;9.70;99.90;;;;;;4992766;28;20037;-77
2022/09/30 01:25:36;;;;;;;1999.90;999.90;;;9.70;99.90;;;;;;4993131;28;20030;-77
2022/09/30 01:28:43;;;;;;;1999.90;999.90;;;9.70;99.90;;;;;;4992783;28;20026;-77
2022/09/30 01:31:23;;;;;;;1999.90;999.90;;;9.80;99.90;;;;;;4997917;28;20117;-77
2022/09/30 01:33:57;;;;;;;1999.90;999.90;;;9.70;99.90;;;;;;4992697;28;20029;-77
2022/09/30 01:36:58;;;;;;;1999.90;999.90;;;9.70;99.90;;;;;;4991573;28;20033;-77
2022/09/30 01:39:36;;;;;;;1999.90;999.90;;;9.80;99.90;;;;;;4994756;28;20394;-77
2022/09/30 01:42:11;;;;;;;1999.90;999.90;;;9.70;99.90;;;;;;4996385;28;20548;-77
2022/09/30 01:45:01;;;;;;;1999.90;999.90;;;9.70;99.90;;;;;;4996703;28;20037;-77
2022/09/30 01:47:45;;;;;;;1999.90;999.90;;;9.70;99.90;;;;;;4996809;28;20074;-77
2022/09/30 01:50:28;;;;;;;1999.90;999.90;;;9.70;99.90;;;;;;4996376;28;20066;-77
2022/09/30 01:53:22;;;;;;;1999.90;999.90;;;9.70;99.90;;;;;;4996416;28;20023;-77
2022/09/30 01:55:50;;;;;;;;;;;9.70;99.90;;;;;;4997127;28;20023;-77
2022/09/30 01:58:25;;;;;;;1999.90;999.90;;;9.70;99.90;;;;;;4995059;28;19906;-77
2022/09/30 02:00:56;;;;;;;1999.90;999.90;;;9.70;99.90;;;;;;4983435;28;20029;-77
2022/09/30 02:03:39;;;;;;;1999.90;999.90;;;9.70;99.90;;;;;;4976588;28;20026;-77
2022/09/30 02:06:09;;;;;;;1999.90;999.90;;;9.70;99.90;;;;;;4976493;28;20203;-77
2022/09/30 02:08:47;;;;;;;1999.90;999.90;;;9.70;99.90;;;;;;4976870;28;20030;-77
2022/09/30 02:11:25;;;;;;;1999.90;999.90;;;9.60;99.90;;;;;;4976846;28;20106;-77
2022/09/30 02:14:22;;;;;;;1999.90;999.90;;;9.60;99.90;;;;;;4975548;28;20107;-77
2022/09/30 02:17:01;;;;;;;1999.90;999.90;;;9.60;99.90;;;;;;4979907;28;20019;-77
2022/09/30 02:19:36;;;;;;;1999.90;999.90;;;9.70;99.90;;;;;;4996184;28;20030;-77
2022/09/30 02:22:23;;;;;;;1999.90;999.90;;;9.60;99.90;;;;;;4995926;28;20026;-77
2022/09/30 02:24:54;;;;;;;1999.90;999.90;;;9.60;99.90;;;;;;4995782;28;20038;-77
2022/09/30 02:27:29;;;;;;;1999.90;999.90;;;9.60;99.90;;;;;;4995942;28;20022;-77
2022/09/30 02:29:58;;;;;;;1999.90;999.90;;;9.60;99.90;;;;;;4995918;28;20029;-77
2022/09/30 02:32:29;;;;;;;1999.90;999.90;;;9.60;99.90;;;;;;4995722;28;20030;-77
2022/09/30 02:35:20;;;;;;;1999.90;999.90;;;9.60;99.90;;;;;;4995460;28;20058;-77
2022/09/30 02:37:51;;;;;;;1999.90;999.90;;;9.60;99.90;;;;;;4995616;28;20026;-77
2022/09/30 02:40:23;;;;;;;1999.90;999.90;;;9.50;99.90;;;;;;4995492;28;20025;-77
2022/09/30 02:42:48;;;;;;;1999.90;999.90;;;9.50;99.90;;;;;;4995095;28;20567;-77
2022/09/30 02:45:20;;;;;;;1999.90;999.90;;;9.40;99.90;;;;;;4995741;28;20061;-77
2022/09/30 02:47:53;;;;;;;1999.90;999.90;;;9.50;99.90;;;;;;4995604;28;20101;-77
2022/09/30 02:50:30;;;;;;;1999.90;999.90;;;9.40;99.90;;;;;;4995074;28;20094;-77
2022/09/30 02:53:17;;;;;;;1999.90;999.90;;;9.40;99.90;;;;;;4994190;28;20034;-77
2022/09/30 02:56:05;;;;;;;1999.90;999.90;;;9.40;99.90;;;;;;4995774;28;20486;-77
2022/09/30 02:58:35;;;;;;;1999.90;999.90;;;9.40;99.90;;;;;;4994922;28;20077;-77
2022/09/30 03:01:01;;;;;;;1999.90;999.90;;;9.40;99.90;;;;;;4980415;28;20490;-77
2022/09/30 03:03:32;;;;;;;1999.90;999.90;;;9.30;99.90;;;;;;4975655;28;20042;-77
2022/09/30 03:05:57;;;;;;;1999.90;999.90;;;9.30;99.90;;;;;;4975776;28;20051;-77
2022/09/30 03:08:25;;;;;;;1999.90;999.90;;;9.30;99.90;;;;;;4994907;28;20057;-77
2022/09/30 03:10:51;;;;;;;1999.90;999.90;;;9.30;99.90;;;;;;4975815;28;20022;-77
2022/09/30 03:14:08;;;;;;;1999.90;999.90;;;9.30;99.90;;;;;;4990537;28;20435;-77
2022/09/30 03:16:34;;;;;;;1999.90;999.90;;;9.20;99.90;;;;;;4976748;28;20043;-76
2022/09/30 03:19:26;;;;;;;1999.90;999.90;;;9.30;99.90;;;;;;4994333;28;20378;-77
2022/09/30 03:22:10;;;;;;;1999.90;999.90;;;9.30;99.90;;;;;;4994998;28;20453;-77
2022/09/30 03:25:01;;;;;;;1999.90;999.90;;;9.30;99.90;;;;;;4994749;28;20083;-77
2022/09/30 03:27:52;;;;;;;1999.90;999.90;;;9.20;99.90;;;;;;4993728;28;20037;-77
2022/09/30 03:30:20;;;;;;;1999.90;999.90;;;9.20;99.90;;;;;;4994783;28;20486;-77
2022/09/30 03:33:08;;;;;;;1999.90;999.90;;;9.20;99.90;;;;;;4993044;28;20026;-77
2022/09/30 03:35:58;;;;;;;1999.90;999.90;;;9.10;99.90;;;;;;4993655;28;20042;-77
2022/09/30 03:38:50;;;;;;;1999.90;999.90;;;9.10;99.90;;;;;;4986070;28;20027;-77
2022/09/30 03:41:38;;;;;;;1999.90;999.90;;;9.10;99.90;;;;;;4993773;28;20411;-77
2022/09/30 03:44:06;;;;;;;1999.90;999.90;;;9.10;99.90;;;;;;4993235;28;20402;-77
2022/09/30 03:46:43;;;;;;;1999.90;999.90;;;9.10;99.90;;;;;;4994490;28;20034;-77
2022/09/30 03:49:18;;;;;;;1999.90;999.90;;;9.10;99.90;;;;;;4993937;28;20034;-77
2022/09/30 03:51:45;;;;;;;1999.90;999.90;;;9.10;99.90;;;;;;4994673;28;20105;-76
2022/09/30 03:54:13;;;;;;;1999.90;999.90;;;9.10;99.90;;;;;;4994275;28;20025;-77
2022/09/30 03:56:42;;;;;;;1999.90;999.90;;;9.10;99.90;;;;;;4994365;28;20595;-77
2022/09/30 03:59:16;;;;;;;1999.90;999.90;;;9.10;99.90;;;;;;4994021;28;20031;-77
2022/09/30 04:01:41;;;;;;;1999.90;999.90;;;9.00;99.90;;;;;;4993307;28;20037;-77
2022/09/30 04:04:07;;;;;;;1999.90;999.90;;;9.00;99.90;;;;;;4992619;28;20034;-77
2022/09/30 04:06:33;;;;;;;1999.90;999.90;;;8.90;99.90;;;;;;4993970;28;20137;-77
2022/09/30 04:08:59;;;;;;;1999.90;999.90;;;9.00;99.90;;;;;;4993950;28;20117;-77
2022/09/30 04:11:25;;;;;;;1999.90;999.90;;;8.90;99.90;;;;;;4992886;28;20022;-77
2022/09/30 04:13:50;;;;;;;1999.90;999.90;;;8.90;99.90;;;;;;4994083;28;20489;-77
2022/09/30 04:16:16;;;;;;;1999.90;999.90;;;8.90;99.90;;;;;;4993751;28;20448;-77
2022/09/30 04:18:42;;;;;;;1999.90;999.90;;;8.90;99.90;;;;;;4992594;28;20490;-77
2022/09/30 04:21:10;;;;;;;1999.90;999.90;;;8.90;99.90;;;;;;4993574;28;20065;-77
2022/09/30 04:23:37;;;;;;;1999.90;999.90;;;8.80;99.90;;;;;;4992078;28;20073;-77
2022/09/30 04:26:05;;;;;;;1999.90;999.90;;;8.80;99.90;;;;;;4993422;28;20034;-77
2022/09/30 04:28:32;;;;;;;1999.90;999.90;;;8.80;99.90;;;;;;4992237;28;20034;-77
2022/09/30 04:31:02;;;;;;;1999.90;999.90;;;8.80;99.90;;;;;;4993537;28;20023;-77
2022/09/30 04:33:28;;;;;;;1999.90;999.90;;;8.80;99.90;;;;;;4993552;28;20114;-77
2022/09/30 04:35:58;;;;;;;1999.90;999.90;;;8.80;99.90;;;;;;4993959;28;20101;-77
2022/09/30 04:38:25;;;;;;;1999.90;999.90;;;8.80;99.90;;;;;;4984885;28;20038;-77
2022/09/30 04:40:53;;;;;;;1999.90;999.90;;;8.70;99.90;;;;;;4992230;28;20018;-77
2022/09/30 04:43:21;;;;;;;1999.90;999.90;;;8.70;99.90;;;;;;4992867;28;20022;-77
2022/09/30 04:45:47;;;;;;;1999.90;999.90;;;8.70;99.90;;;;;;4993502;28;20034;-77
2022/09/30 04:48:13;;;;;;;1999.90;999.90;;;8.70;99.90;;;;;;4992999;28;20030;-77
2022/09/30 04:50:39;;;;;;;1999.90;999.90;;;8.70;99.90;;;;;;4992134;28;20065;-77
2022/09/30 04:53:05;;;;;;;1999.90;999.90;;;8.60;99.90;;;;;;4982604;28;20030;-77
2022/09/30 04:55:31;;;;;;;1999.90;999.90;;;8.70;99.90;;;;;;4974050;28;20023;-77
2022/09/30 04:57:56;;;;;;;1999.90;999.90;;;8.60;99.90;;;;;;4973648;28;20033;-76
2022/09/30 05:00:23;;;;;;;1999.90;999.90;;;8.60;99.90;;;;;;4973613;28;20023;-77
2022/09/30 05:02:49;;;;;;;1999.90;999.90;;;8.60;99.90;;;;;;4972068;28;20033;-77
2022/09/30 05:05:15;;;;;;;1999.90;999.90;;;8.60;99.90;;;;;;4974152;28;20030;-77
2022/09/30 05:07:41;;;;;;;1999.90;999.90;;;8.50;99.90;;;;;;4973412;28;20058;-77
2022/09/30 05:10:07;;;;;;;1999.90;999.90;;;8.50;99.90;;;;;;4973481;28;20027;-77
2022/09/30 05:12:33;;;;;;;1999.90;999.90;;;8.50;99.90;;;;;;4973039;28;20026;-77
2022/09/30 05:14:59;;;;;;;1999.90;999.90;;;8.50;99.90;;;;;;4973417;28;20409;-77
2022/09/30 05:17:25;;;;;;;1999.90;999.90;;;8.50;99.90;;;;;;4980543;28;20022;-77
2022/09/30 05:19:50;;;;;;;1999.90;999.90;;;8.50;99.90;;;;;;4992564;28;20030;-77
2022/09/30 05:22:16;;;;;;;1999.90;999.90;;;8.50;99.90;;;;;;4992717;28;20483;-77
2022/09/30 05:24:42;;;;;;;1999.90;999.90;;;8.40;99.90;;;;;;4992579;28;20034;-77
2022/09/30 05:27:08;;;;;;;1999.90;999.90;;;8.40;99.90;;;;;;4992855;28;20034;-77
2022/09/30 05:29:33;;;;;;;1999.90;999.90;;;8.40;99.90;;;;;;4992673;28;20030;-77
2022/09/30 05:31:59;;;;;;;1999.90;999.90;;;8.50;99.90;;;;;;4992699;28;20033;-77
2022/09/30 05:34:25;;;;;;;1999.90;999.90;;;8.40;99.90;;;;;;4992424;28;20026;-77
2022/09/30 05:36:50;;;;;;;1999.90;999.90;;;8.40;99.90;;;;;;4976332;28;20390;-77
2022/09/30 05:39:16;;;;;;;1999.90;999.90;;;8.40;99.90;;;;;;4978129;28;20036;-77
2022/09/30 05:41:41;;;;;;;1999.90;999.90;;;8.40;99.90;;;;;;4990428;28;20030;-77
2022/09/30 05:44:09;;;;;;;1999.90;999.90;;;8.30;99.90;;;;;;4990855;28;20497;-77
2022/09/30 05:46:34;;;;;;;1999.90;999.90;;;8.30;99.90;;;;;;4992365;28;20426;-77
2022/09/30 05:49:00;;;;;;;1999.90;999.90;;;8.30;99.90;;;;;;4991894;28;20081;-77
2022/09/30 05:51:26;;;;;;;1999.90;999.90;;;8.40;99.90;;;;;;4990373;28;20025;-77
2022/09/30 05:53:51;;;;;;;1999.90;999.90;;;8.40;99.90;;;;;;4992183;28;20037;-77
2022/09/30 05:56:17;;;;;;;1999.90;999.90;;;8.40;99.90;;;;;;4992261;28;20026;-77
2022/09/30 05:58:43;;;;;;;1999.90;999.90;;;8.40;99.90;;;;;;4990862;28;20030;-76
2022/09/30 06:01:14;;;;;;;1999.90;999.90;;;8.40;99.90;;;;;;4991972;28;20089;-77
2022/09/30 06:03:41;;;;;;;1999.90;999.90;;;8.40;99.90;;;;;;4992402;28;20030;-77
2022/09/30 06:06:06;;;;;;;1999.90;999.90;;;8.40;99.90;;;;;;4992034;28;20413;-79
2022/09/30 06:08:32;;;;;;;1999.90;999.90;;;8.40;99.90;;;;;;4989267;28;20034;-79
2022/09/30 06:10:58;;;;;;;1999.90;999.90;;;8.40;99.90;;;;;;4988895;28;20034;-79
2022/09/30 06:13:24;;;;;;;1999.90;999.90;;;8.40;99.90;;;;;;4989109;28;20030;-79
2022/09/30 06:16:01;;;;;;;1999.90;999.90;;;8.40;99.90;;;;;;4987806;28;20030;-79
2022/09/30 06:18:28;;;;;;;1999.90;999.90;;;8.50;99.90;;;;;;4974895;28;20026;-79
2022/09/30 06:20:57;;;;;;;1999.90;999.90;;;8.50;99.90;;;;;;4989591;28;20556;-80
2022/09/30 06:23:24;;;;;;;1999.90;999.90;;;8.50;99.90;;;;;;4988195;28;20076;-79
2022/09/30 06:25:51;;;;;;;1999.90;999.90;;;8.50;99.90;;;;;;4989734;28;20100;-79
2022/09/30 06:28:17;;;;;;;1999.90;999.90;;;8.50;99.90;;;;;;5003434;28;20437;-79
2022/09/30 06:30:43;;;;;;;1999.90;999.90;;;8.60;99.90;;;;;;4992279;28;20026;-79
2022/09/30 06:33:09;;;;;;;1999.90;999.90;;;8.60;99.90;;;;;;4988813;28;20026;-79
2022/09/30 06:35:35;;;;;;;1999.90;999.90;;;8.60;99.90;;;;;;4987979;28;20449;-79
2022/09/30 06:38:01;;;;;;;1999.90;999.90;;;8.60;99.90;;;;;;4994601;28;20105;-79
2022/09/30 06:40:26;;;;;;;1999.90;999.90;;;8.70;99.90;;;;;;4988199;28;20434;-79
2022/09/30 06:42:58;;;;;;;1999.90;999.90;;;8.70;99.90;;;;;;4993535;28;20066;-79
2022/09/30 06:45:24;;;;;;;1999.90;999.90;;;8.80;99.90;;;;;;4990165;28;20048;-79
2022/09/30 06:47:50;;;;;;;1999.90;999.90;;;8.80;99.90;;;;;;4991180;28;20508;-79
2022/09/30 06:50:17;;;;;;;1999.90;999.90;;;8.90;99.90;;;;;;4981395;28;20109;-79
2022/09/30 06:52:42;;;;;;;1999.90;999.90;;;9.00;99.90;;;;;;4985646;28;20037;-79
2022/09/30 06:55:08;;;;;;;1999.90;999.90;;;9.00;99.90;;;;;;4984519;28;20421;-79
2022/09/30 06:57:34;;;;;;;1999.90;999.90;;;9.10;99.90;;;;;;4983736;28;20374;-79
2022/09/30 07:00:00;;;;;;;1999.90;999.90;;;9.20;99.90;;;;;;4993587;28;20018;-79
2022/09/30 07:02:28;;;;;;;1999.90;999.90;;;9.20;99.90;;;;;;4992255;28;20034;-79
2022/09/30 07:04:53;;;;;;;1999.90;999.90;;;9.30;99.90;;;;;;4985015;28;20068;-79
2022/09/30 07:07:21;;;;;;;1999.90;999.90;;;9.40;99.90;;;;;;4981037;28;20090;-78
2022/09/30 07:09:46;;;;;;;1999.90;999.90;;;9.50;99.90;;;;;;4993010;28;20027;-79
2022/09/30 07:12:12;;;;;;;1999.90;999.90;;;9.50;99.90;;;;;;4985060;28;20050;-80
2022/09/30 07:14:38;;;;;;;1999.90;999.90;;;9.60;99.90;;;;;;4976821;28;20031;-79
2022/09/30 07:17:05;;;;;;;1999.90;999.90;;;9.70;99.90;;;;;;4988623;28;20056;-78
2022/09/30 07:19:34;;;;;;;1999.90;999.90;;;9.80;99.90;;;;;;4988992;28;20073;-79
2022/09/30 07:22:26;;;;;;;1999.90;999.90;;;9.80;99.90;;;;;;4992286;28;20498;-79
2022/09/30 07:24:45;;;;;;;1999.90;999.90;;;9.90;99.90;;;;;;4986617;28;20030;-80
2022/09/30 07:27:12;;;;;;;1999.90;999.90;;;10.00;99.90;;;;;;4993211;28;20033;-79
2022/09/30 07:29:42;;;;;;;1999.90;999.90;;;10.10;99.90;;;;;;4993082;28;20026;-79
2022/09/30 07:32:08;;;;;;;1999.90;999.90;;;10.80;99.90;;;;;;4992343;28;20509;-79
2022/09/30 07:34:35;;;;;;;1999.90;999.90;;;12.70;99.90;;;;;;4991642;28;20025;-80
2022/09/30 07:37:02;;;;;;;1999.90;999.90;;;15.40;99.90;;;;;;4988267;28;20083;-80
2022/09/30 07:39:30;;;;;;;1999.90;999.90;;;16.90;99.90;;;;;;4974025;28;20094;-79
2022/09/30 07:41:55;;;;;;;1999.90;999.90;;;15.80;99.90;;;;;;4988674;28;20528;-80
2022/09/30 07:44:25;;;;;;;1999.90;999.90;;;14.30;99.90;;;;;;4993348;28;20022;-80
2022/09/30 07:46:51;;;;;;;1999.90;999.90;;;13.50;99.90;;;;;;5008881;28;20030;-80
2022/09/30 07:49:24;;;;;;;1999.90;999.90;;;12.70;99.90;;;;;;4993305;28;20117;-79
2022/09/30 07:51:51;;;;;;;1999.90;999.90;;;12.30;99.90;;;;;;4975350;28;20027;-80
2022/09/30 07:54:21;;;;;;;1999.90;999.90;;;12.00;99.90;;;;;;4993122;28;20030;-79
2022/09/30 07:56:47;;;;;;;1999.90;999.90;;;12.00;99.90;;;;;;4993465;28;20026;-80
2022/09/30 07:59:13;;;;;;;1999.90;999.90;;;11.90;99.90;;;;;;4993284;28;20034;-79
2022/09/30 08:01:39;;;;;;;1999.90;999.90;;;12.20;99.90;;;;;;4988139;28;20034;-80
2022/09/30 08:04:07;;;;;;;1999.90;999.90;;;13.10;99.90;;;;;;4978472;28;20493;-80
2022/09/30 08:06:38;;;;;;;1999.90;999.90;;;13.50;99.90;;;;;;4982383;28;20062;-79
2022/09/30 08:09:04;;;;;;;1999.90;999.90;;;13.90;99.90;;;;;;4978933;28;20402;-79
2022/09/30 08:11:33;;;;;;;1999.90;999.90;;;15.10;99.90;;;;;;4983086;28;20074;-80
2022/09/30 08:13:59;;;;;;;1999.90;999.90;;;16.00;99.90;;;;;;4986265;28;20110;-80
2022/09/30 08:16:26;;;;;;;1999.90;999.90;;;16.20;99.90;;;;;;4973644;28;20114;-80
2022/09/30 08:18:56;;;;;;;1999.90;999.90;;;16.90;99.90;;;;;;4991729;28;20037;-80
2022/09/30 08:21:22;;;;;;;1999.90;999.90;;;19.00;99.90;;;;;;4980168;28;20656;-79
2022/09/30 08:23:48;;;;;;;1999.90;999.90;;;19.60;99.90;;;;;;4990779;28;20058;-79
2022/09/30 08:26:15;;;;;;;1999.90;999.90;;;19.80;99.90;;;;;;4992867;28;20062;-80
2022/09/30 08:28:41;;;;;;;1999.90;999.90;;;19.90;99.90;;;;;;4990291;28;20093;-80
2022/09/30 08:31:34;;;;;;;1999.90;999.90;;;21.10;99.50;;;;;;4989886;28;20113;-81
2022/09/30 08:34:01;;;;;;;1999.90;999.90;;;21.80;98.10;;;;;;4978947;28;20043;-79
2022/09/30 08:36:28;;;;;;;1999.90;999.90;;;21.60;97.50;;;;;;4992710;28;20030;-80
2022/09/30 08:38:54;;;;;;;1999.90;999.90;;;20.10;98.60;;;;;;4988089;28;20034;-80
2022/09/30 08:41:37;;;;;;;1999.90;999.90;;;20.00;99.40;;;;;;4973343;28;20034;-79
2022/09/30 08:44:24;;;;;;;1999.90;999.90;;;20.30;99.30;;;;;;4983996;28;20114;-79
2022/09/30 08:47:20;;;;;;;1999.90;999.90;;;20.90;98.30;;;;;;4990037;28;20039;-79
2022/09/30 08:50:15;;;;;;;1999.90;999.90;;;21.50;97.30;;;;;;4973480;28;20030;-79
2022/09/30 08:52:45;;;;;;;1999.90;999.90;;;21.30;98.50;;;;;;4979301;28;20104;-80
2022/09/30 08:55:20;;;;;;;1999.90;999.90;;;20.80;98.30;;;;;;4989005;28;20042;-81
2022/09/30 08:57:46;;;;;;;1999.90;999.90;;;20.60;98.30;;;;;;4991806;28;20026;-78
2022/09/30 09:00:15;;;;;;;1999.90;999.90;;;20.00;98.80;;;;;;4990436;28;20031;-79
2022/09/30 09:02:59;;;;;;;1999.90;999.90;;;19.40;99.80;;;;;;4991914;28;20033;-79
2022/09/30 09:05:48;;;;;;;1999.90;999.90;;;19.00;99.90;;;;;;4977821;28;20038;-79
2022/09/30 09:08:32;;;;;;;1999.90;999.90;;;18.90;99.90;;;;;;4994299;28;20050;-80
2022/09/30 09:11:16;;;;;;;1999.90;999.90;;;19.60;99.60;;;;;;4971319;28;20050;-78
2022/09/30 09:13:50;;;;;;;1999.90;999.90;;;19.60;99.60;;;;;;4987012;28;20393;-78
2022/09/30 09:16:40;;;;;;;1999.90;999.90;;;19.90;99.10;;;;;;4991764;28;20030;-80
2022/09/30 09:19:06;;;;;;;1999.90;999.90;;;20.50;98.10;;;;;;4989831;28;20046;-78
2022/09/30 09:21:34;;;;;;;1999.90;999.90;;;20.00;98.10;;;;;;4990228;28;20065;-79
2022/09/30 09:24:02;;;;;;;1999.90;999.90;;;19.30;99.00;;;;;;4985502;28;20401;-79
2022/09/30 09:26:35;;;;;;;1999.90;999.90;;;19.00;99.10;;;;;;4990782;28;20038;-78
2022/09/30 09:29:01;;;;;;;1999.90;999.90;;;18.80;99.40;;;;;;4991556;28;20034;-80
2022/09/30 09:31:26;;;;;;;1999.90;999.90;;;18.80;98.90;;;;;;4990756;28;20081;-79
2022/09/30 09:33:59;;;;;;;1999.90;999.90;;;18.50;99.90;;;;;;4989965;28;20066;-79
2022/09/30 09:36:48;;;;;;;1999.90;999.90;;;18.20;99.90;;;;;;4991490;28;20030;-79
2022/09/30 09:39:28;;;;;;;1999.90;999.90;;;18.20;99.90;;;;;;4991673;28;20432;-79
2022/09/30 09:42:32;;;;;;;1999.90;999.90;;;18.00;99.90;;;;;;4991815;28;20077;-79
2022/09/30 09:45:21;;;;;;;1999.90;999.90;;;18.00;99.90;;;;;;4988042;28;20042;-78
2022/09/30 09:47:56;;;;;;;1999.90;999.90;;;17.80;99.90;;;;;;4991468;28;20022;-79
2022/09/30 09:50:27;;;;;;;1999.90;999.90;;;17.90;99.90;;;;;;4987805;28;20027;-78
2022/09/30 09:53:26;;;;;;;1999.90;999.90;;;17.90;99.90;;;;;;4979253;28;20029;-79
2022/09/30 09:55:58;;;;;;;1999.90;999.90;;;17.90;99.90;;;;;;4996528;28;20379;-79
2022/09/30 09:58:24;;;;;;;1999.90;999.90;;;17.80;99.50;;;;;;4991232;28;20026;-79
2022/09/30 10:03:19;;;;;;;1999.90;999.90;;;17.70;99.90;;;;;;4991543;28;20049;-79
2022/09/30 10:06:07;;;;;;;1999.90;999.90;;;17.60;99.50;;;;;;4988237;28;20053;-79
2022/09/30 10:08:53;;;;;;;1999.90;999.90;;;17.40;99.90;;;;;;4993319;28;20038;-79
2022/09/30 10:11:22;;;;;;;1999.90;999.90;;;17.40;99.90;;;;;;4991348;28;20019;-78
2022/09/30 10:13:50;;;;;;;1999.90;999.90;;;17.50;99.90;;;;;;4976337;28;20027;-79
2022/09/30 10:16:41;;;;;;;1999.90;999.90;;;17.60;99.60;;;;;;4975547;28;20023;-79
2022/09/30 10:19:21;;;;;;;1999.90;999.90;;;17.80;99.90;;;;;;4978440;28;20038;-78
2022/09/30 10:21:47;;;;;;;1999.90;999.90;;;17.80;99.30;;;;;;4975793;28;20501;-79
2022/09/30 10:24:30;;;;;;;1999.90;999.90;;;17.60;99.20;;;;;;4974186;28;20070;-79
2022/09/30 10:26:56;;;;;;;1999.90;999.90;;;17.80;99.90;;;;;;4975584;28;20026;-79
2022/09/30 10:29:33;;;;;;;1999.90;999.90;;;17.70;99.10;;;;;;4975399;28;20046;-78
2022/09/30 10:32:01;;;;;;;1999.90;999.90;;;17.70;99.10;;;;;;4975284;28;20030;-78
2022/09/30 10:34:33;;;;;;;1999.90;999.90;;;17.90;98.80;;;;;;4981899;28;20089;-79
2022/09/30 10:37:09;;;;;;;1999.90;999.90;;;17.90;97.80;;;;;;4994795;28;20022;-79
2022/09/30 10:39:37;;;;;;;1999.90;999.90;;;17.90;98.00;;;;;;4993348;28;20038;-79
2022/09/30 10:42:10;;;;;;;1999.90;999.90;;;17.80;98.20;;;;;;4993464;28;20026;-79
2022/09/30 10:44:45;;;;;;;1999.90;999.90;;;17.70;98.30;;;;;;4993568;28;20512;-78
2022/09/30 10:47:18;;;;;;;1999.90;999.90;;;17.80;98.40;;;;;;4994817;28;20048;-80
2022/09/30 10:50:04;;;;;;;1999.90;999.90;;;17.80;98.50;;;;;;4994636;28;20113;-80
2022/09/30 10:52:43;;;;;;;1999.90;999.90;;;17.80;98.60;;;;;;4992991;28;20026;-80
2022/09/30 10:55:33;;;;;;;1999.90;999.90;;;17.90;97.70;;;;;;4981900;28;20454;-79
2022/09/30 10:58:37;;;;;;;1999.90;999.90;;;17.60;98.20;;;;;;4983402;28;20025;-78
2022/09/30 11:01:31;;;;;;;1999.90;999.90;;;17.90;98.50;;;;;;4993040;28;20097;-80
2022/09/30 11:04:28;;;;;;;1999.90;999.90;;;17.70;98.10;;;;;;4989907;28;20061;-79
2022/09/30 11:07:02;;;;;;;1999.90;999.90;;;17.80;98.00;;;;;;4991236;28;20506;-78
2022/09/30 11:09:46;;;;;;;1999.90;999.90;;;18.00;97.50;;;;;;4992302;28;20402;-79
2022/09/30 11:12:38;;;;;;;1999.90;999.90;;;18.20;97.90;;;;;;4992620;28;20105;-80
2022/09/30 11:15:20;;;;;;;1999.90;999.90;;;18.40;97.30;;;;;;4988170;28;20072;-80
2022/09/30 11:18:00;;;;;;;1999.90;999.90;;;18.40;96.40;;;;;;4983933;28;20050;-80
2022/09/30 11:20:38;;;;;;;1999.90;999.90;;;18.30;96.90;;;;;;4992521;28;20498;-79
2022/09/30 11:23:10;;;;;;;1999.90;999.90;;;18.20;96.70;;;;;;4992969;28;20026;-79
2022/09/30 11:25:38;;;;;;;1999.90;999.90;;;17.80;96.50;;;;;;4993644;28;20482;-80
2022/09/30 11:28:22;;;;;;;1999.90;999.90;;;17.70;97.20;;;;;;4981481;28;20061;-78
2022/09/30 11:31:14;;;;;;;1999.90;999.90;;;17.80;97.60;;;;;;4967500;28;20039;-77
2022/09/30 11:33:50;;;;;;;1999.90;999.90;;;17.60;97.80;;;;;;4974352;28;20125;-76
2022/09/30 11:36:35;;;;;;;1999.90;999.90;;;17.80;97.80;;;;;;4974430;28;20033;-75
2022/09/30 11:39:19;;;;;;;1999.90;999.90;;;18.10;98.20;;;;;;4978936;28;20019;-77
2022/09/30 11:41:55;;;;;;;1999.90;999.90;;;17.90;97.80;;;;;;4986310;28;20026;-77
2022/09/30 11:44:40;;;;;;;1999.90;999.90;;;17.60;98.30;;;;;;4982498;28;20456;-76
2022/09/30 11:47:48;;;;;;;1999.90;999.90;;;17.60;98.10;;;;;;4991328;28;20026;-76
2022/09/30 11:50:19;;;;;;;1999.90;999.90;;;17.70;98.50;;;;;;4984665;28;20078;-77
2022/09/30 11:52:48;;;;;;;1999.90;999.90;;;17.50;98.00;;;;;;4991488;28;20494;-77
2022/09/30 11:55:48;;;;;;;1999.90;999.90;;;17.50;98.90;;;;;;4992484;28;20041;-76
2022/09/30 11:58:19;;;;;;;1999.90;999.90;;;17.70;99.60;;;;;;4991919;28;20123;-78
2022/09/30 12:00:49;;;;;;;1999.90;999.90;;;18.00;98.50;;;;;;4975131;28;20105;-77
2022/09/30 12:03:25;;;;;;;1999.90;999.90;;;17.70;98.00;;;;;;4980674;28;20018;-76
2022/09/30 12:05:57;;;;;;;1999.90;999.90;;;17.80;99.90;;;;;;4986805;28;20055;-76
2022/09/30 12:08:37;;;;;;;1999.90;999.90;;;17.80;99.90;;;;;;4994565;28;20472;-76
2022/09/30 12:11:13;;;;;;;1999.90;999.90;;;17.70;99.80;;;;;;4991414;28;20430;-75
2022/09/30 12:13:46;;;;;;;1999.90;999.90;;;18.20;99.50;;;;;;4984593;28;20037;-76
2022/09/30 12:16:18;;;;;;;1999.90;999.90;;;18.00;99.40;;;;;;4990043;28;20109;-76
2022/09/30 12:18:52;;;;;;;1999.90;999.90;;;17.70;99.90;;;;;;4976784;28;20034;-76
2022/09/30 12:21:38;;;;;;;1999.90;999.90;;;17.80;99.90;;;;;;4989593;28;20030;-76
2022/09/30 12:24:29;;;;;;;1999.90;999.90;;;18.20;99.90;;;;;;4989119;28;20145;-77
2022/09/30 12:26:55;;;;;;;1999.90;999.90;;;18.30;99.90;;;;;;4986460;28;20031;-77
2022/09/30 12:32:53;;;;;;;1999.90;999.90;;;18.90;99.90;;;;;;4972250;28;20036;-76
2022/09/30 12:35:48;;;;;;;1999.90;999.90;;;18.40;99.90;;;;;;4981422;28;20142;-76
2022/09/30 12:38:41;;;;;;;1999.90;999.90;;;18.50;99.90;;;;;;4971533;28;20185;-76
2022/09/30 12:41:34;;;;;;;1999.90;999.90;;;18.00;99.90;;;;;;4981599;28;20107;-77